sensor_id;sensor_type;location;lat;lon;timestamp;temperature;humidity
41876;DHT22;27555;50.808;4.402;2023-04-24T00:02:14;11.30;99.90
41876;DHT22;27555;50.808;4.402;2023-04-24T00:04:41;11.40;99.90
41876;DHT22;27555;50.808;4.402;2023-04-24T00:07:10;11.30;99.90
41876;DHT22;27555;50.808;4.402;2023-04-24T00:09:36;11.00;99.90
41876;DHT22;27555;50.808;4.402;2023-04-24T00:12:01;10.90;99.90
41876;DHT22;27555;50.808;4.402;2023-04-24T00:14:30;10.90;99.90
41876;DHT22;27555;50.808;4.402;2023-04-24T00:16:56;10.90;99.90
41876;DHT22;27555;50.808;4.402;2023-04-24T00:19:21;10.90;99.90
41876;DHT22;27555;50.808;4.402;2023-04-24T00:21:47;10.80;99.90
41876;DHT22;27555;50.808;4.402;2023-04-24T00:24:16;10.80;99.90
41876;DHT22;27555;50.808;4.402;2023-04-24T00:26:42;10.70;99.90
41876;DHT22;27555;50.808;4.402;2023-04-24T00:29:07;10.70;99.90
41876;DHT22;27555;50.808;4.402;2023-04-24T00:31:33;10.70;99.90
41876;DHT22;27555;50.808;4.402;2023-04-24T00:34:01;10.80;99.90
41876;DHT22;27555;50.808;4.402;2023-04-24T00:36:27;10.90;99.90
41876;DHT22;27555;50.808;4.402;2023-04-24T00:38:54;10.90;99.90
41876;DHT22;27555;50.808;4.402;2023-04-24T00:41:19;11.00;99.90
41876;DHT22;27555;50.808;4.402;2023-04-24T00:43:46;11.00;99.90
41876;DHT22;27555;50.808;4.402;2023-04-24T00:46:12;11.00;99.90
41876;DHT22;27555;50.808;4.402;2023-04-24T00:48:39;11.00;99.90
41876;DHT22;27555;50.808;4.402;2023-04-24T00:51:05;11.10;99.90
41876;DHT22;27555;50.808;4.402;2023-04-24T00:53:31;11.00;99.90
41876;DHT22;27555;50.808;4.402;2023-04-24T00:55:58;10.90;99.90
41876;DHT22;27555;50.808;4.402;2023-04-24T00:58:25;11.00;99.90
41876;DHT22;27555;50.808;4.402;2023-04-24T01:00:53;10.90;99.90
41876;DHT22;27555;50.808;4.402;2023-04-24T01:03:28;10.80;99.90
41876;DHT22;27555;50.808;4.402;2023-04-24T01:05:55;10.80;99.90
41876;DHT22;27555;50.808;4.402;2023-04-24T01:08:23;10.90;99.90
41876;DHT22;27555;50.808;4.402;2023-04-24T01:10:52;11.00;99.90
41876;DHT22;27555;50.808;4.402;2023-04-24T01:13:18;10.80;99.90
41876;DHT22;27555;50.808;4.402;2023-04-24T01:15:45;10.80;99.90
41876;DHT22;27555;50.808;4.402;2023-04-24T01:18:11;10.80;99.90
41876;DHT22;27555;50.808;4.402;2023-04-24T01:20:39;10.90;99.90
41876;DHT22;27555;50.808;4.402;2023-04-24T01:23:06;10.80;99.90
41876;DHT22;27555;50.808;4.402;2023-04-24T01:25:31;10.80;99.90
41876;DHT22;27555;50.808;4.402;2023-04-24T01:27:58;10.90;99.90
41876;DHT22;27555;50.808;4.402;2023-04-24T01:30:23;11.00;99.90
41876;DHT22;27555;50.808;4.402;2023-04-24T01:32:49;10.50;99.90
41876;DHT22;27555;50.808;4.402;2023-04-24T01:35:15;10.50;99.90
41876;DHT22;27555;50.808;4.402;2023-04-24T01:37:41;10.40;99.90
41876;DHT22;27555;50.808;4.402;2023-04-24T01:40:07;10.40;99.90
41876;DHT22;27555;50.808;4.402;2023-04-24T01:42:33;10.40;99.90
41876;DHT22;27555;50.808;4.402;2023-04-24T01:45:00;10.40;99.90
41876;DHT22;27555;50.808;4.402;2023-04-24T01:47:27;10.70;99.90
41876;DHT22;27555;50.808;4.402;2023-04-24T01:49:53;10.80;99.90
41876;DHT22;27555;50.808;4.402;2023-04-24T01:52:19;10.70;99.90
41876;DHT22;27555;50.808;4.402;2023-04-24T01:54:45;10.50;99.90
41876;DHT22;27555;50.808;4.402;2023-04-24T01:57:10;10.40;99.90
41876;DHT22;27555;50.808;4.402;2023-04-24T01:59:36;10.40;99.90
41876;DHT22;27555;50.808;4.402;2023-04-24T02:02:03;10.00;99.90
41876;DHT22;27555;50.808;4.402;2023-04-24T02:04:29;10.10;99.90
41876;DHT22;27555;50.808;4.402;2023-04-24T02:06:55;10.10;99.90
41876;DHT22;27555;50.808;4.402;2023-04-24T02:09:20;10.10;99.90
41876;DHT22;27555;50.808;4.402;2023-04-24T02:11:46;10.10;99.90
41876;DHT22;27555;50.808;4.402;2023-04-24T02:14:12;10.00;99.90
41876;DHT22;27555;50.808;4.402;2023-04-24T02:16:37;10.00;99.90
41876;DHT22;27555;50.808;4.402;2023-04-24T02:19:03;10.00;99.90
41876;DHT22;27555;50.808;4.402;2023-04-24T02:21:29;10.20;99.90
41876;DHT22;27555;50.808;4.402;2023-04-24T02:23:56;10.30;99.90
41876;DHT22;27555;50.808;4.402;2023-04-24T02:26:22;10.30;99.90
41876;DHT22;27555;50.808;4.402;2023-04-24T02:28:48;10.30;99.90
41876;DHT22;27555;50.808;4.402;2023-04-24T02:31:14;10.30;99.90
41876;DHT22;27555;50.808;4.402;2023-04-24T02:33:39;10.40;99.90
41876;DHT22;27555;50.808;4.402;2023-04-24T02:36:05;10.20;99.90
41876;DHT22;27555;50.808;4.402;2023-04-24T02:38:31;10.20;99.90
41876;DHT22;27555;50.808;4.402;2023-04-24T02:40:56;10.20;99.90
41876;DHT22;27555;50.808;4.402;2023-04-24T02:43:22;10.40;99.90
41876;DHT22;27555;50.808;4.402;2023-04-24T02:45:48;10.30;99.90
41876;DHT22;27555;50.808;4.402;2023-04-24T02:48:14;10.20;99.90
41876;DHT22;27555;50.808;4.402;2023-04-24T02:50:40;10.30;99.90
41876;DHT22;27555;50.808;4.402;2023-04-24T02:53:05;10.30;99.90
41876;DHT22;27555;50.808;4.402;2023-04-24T02:55:31;10.30;99.90
41876;DHT22;27555;50.808;4.402;2023-04-24T02:57:57;10.20;99.90
41876;DHT22;27555;50.808;4.402;2023-04-24T03:00:22;10.20;99.90
41876;DHT22;27555;50.808;4.402;2023-04-24T03:02:48;10.40;99.90
41876;DHT22;27555;50.808;4.402;2023-04-24T03:05:15;10.40;99.90
41876;DHT22;27555;50.808;4.402;2023-04-24T03:07:41;10.20;99.90
41876;DHT22;27555;50.808;4.402;2023-04-24T03:10:07;10.20;99.90
41876;DHT22;27555;50.808;4.402;2023-04-24T03:12:33;10.20;99.90
41876;DHT22;27555;50.808;4.402;2023-04-24T03:14:58;10.20;99.90
41876;DHT22;27555;50.808;4.402;2023-04-24T03:17:24;10.20;99.90
41876;DHT22;27555;50.808;4.402;2023-04-24T03:19:50;10.20;99.90
41876;DHT22;27555;50.808;4.402;2023-04-24T03:22:16;10.20;99.90
41876;DHT22;27555;50.808;4.402;2023-04-24T03:24:41;10.20;99.90
41876;DHT22;27555;50.808;4.402;2023-04-24T03:27:07;9.90;99.90
41876;DHT22;27555;50.808;4.402;2023-04-24T03:29:33;10.10;99.90
41876;DHT22;27555;50.808;4.402;2023-04-24T03:31:58;10.20;99.90
41876;DHT22;27555;50.808;4.402;2023-04-24T03:34:24;10.40;99.90
41876;DHT22;27555;50.808;4.402;2023-04-24T03:36:50;10.40;99.90
41876;DHT22;27555;50.808;4.402;2023-04-24T03:39:15;10.10;99.90
41876;DHT22;27555;50.808;4.402;2023-04-24T03:41:41;10.10;99.90
41876;DHT22;27555;50.808;4.402;2023-04-24T03:44:07;10.10;99.90
41876;DHT22;27555;50.808;4.402;2023-04-24T03:46:32;10.20;99.90
41876;DHT22;27555;50.808;4.402;2023-04-24T03:48:58;10.30;99.90
41876;DHT22;27555;50.808;4.402;2023-04-24T03:51:23;10.20;99.90
41876;DHT22;27555;50.808;4.402;2023-04-24T03:53:49;10.20;99.90
41876;DHT22;27555;50.808;4.402;2023-04-24T03:56:15;10.10;99.90
41876;DHT22;27555;50.808;4.402;2023-04-24T03:58:40;10.00;99.90
41876;DHT22;27555;50.808;4.402;2023-04-24T04:01:06;10.00;99.90
41876;DHT22;27555;50.808;4.402;2023-04-24T04:03:32;10.10;99.90
41876;DHT22;27555;50.808;4.402;2023-04-24T04:05:58;10.30;99.90
41876;DHT22;27555;50.808;4.402;2023-04-24T04:08:24;10.40;99.90
41876;DHT22;27555;50.808;4.402;2023-04-24T04:10:50;9.90;99.90
41876;DHT22;27555;50.808;4.402;2023-04-24T04:13:16;10.00;99.90
41876;DHT22;27555;50.808;4.402;2023-04-24T04:15:41;10.10;99.90
41876;DHT22;27555;50.808;4.402;2023-04-24T04:18:07;10.10;99.90
41876;DHT22;27555;50.808;4.402;2023-04-24T04:20:33;10.10;99.90
41876;DHT22;27555;50.808;4.402;2023-04-24T04:22:58;10.20;99.90
41876;DHT22;27555;50.808;4.402;2023-04-24T04:25:24;10.40;99.90
41876;DHT22;27555;50.808;4.402;2023-04-24T04:27:50;10.60;99.90
41876;DHT22;27555;50.808;4.402;2023-04-24T04:30:16;10.70;99.90
41876;DHT22;27555;50.808;4.402;2023-04-24T04:32:43;10.80;99.90
41876;DHT22;27555;50.808;4.402;2023-04-24T04:35:09;10.70;99.90
41876;DHT22;27555;50.808;4.402;2023-04-24T04:37:35;10.70;99.90
41876;DHT22;27555;50.808;4.402;2023-04-24T04:40:02;10.60;99.90
41876;DHT22;27555;50.808;4.402;2023-04-24T04:42:37;10.50;99.90
41876;DHT22;27555;50.808;4.402;2023-04-24T04:45:08;10.30;99.90
41876;DHT22;27555;50.808;4.402;2023-04-24T04:47:34;10.00;99.90
41876;DHT22;27555;50.808;4.402;2023-04-24T04:50:00;9.80;99.90
41876;DHT22;27555;50.808;4.402;2023-04-24T04:52:26;10.10;99.90
41876;DHT22;27555;50.808;4.402;2023-04-24T04:54:52;10.10;99.90
41876;DHT22;27555;50.808;4.402;2023-04-24T04:57:17;10.00;99.90
41876;DHT22;27555;50.808;4.402;2023-04-24T04:59:43;9.90;99.90
41876;DHT22;27555;50.808;4.402;2023-04-24T05:02:09;10.10;99.90
41876;DHT22;27555;50.808;4.402;2023-04-24T05:04:34;10.00;99.90
41876;DHT22;27555;50.808;4.402;2023-04-24T05:07:00;10.10;99.90
41876;DHT22;27555;50.808;4.402;2023-04-24T05:09:26;10.10;99.90
41876;DHT22;27555;50.808;4.402;2023-04-24T05:11:53;10.30;99.90
41876;DHT22;27555;50.808;4.402;2023-04-24T05:14:18;10.10;99.90
41876;DHT22;27555;50.808;4.402;2023-04-24T05:16:44;10.20;99.90
41876;DHT22;27555;50.808;4.402;2023-04-24T05:19:10;10.00;99.90
41876;DHT22;27555;50.808;4.402;2023-04-24T05:21:37;9.90;99.90
41876;DHT22;27555;50.808;4.402;2023-04-24T05:24:04;9.80;99.90
41876;DHT22;27555;50.808;4.402;2023-04-24T05:26:30;9.60;99.90
41876;DHT22;27555;50.808;4.402;2023-04-24T05:28:56;9.80;99.90
41876;DHT22;27555;50.808;4.402;2023-04-24T05:31:22;10.10;99.90
41876;DHT22;27555;50.808;4.402;2023-04-24T05:33:47;10.30;99.90
41876;DHT22;27555;50.808;4.402;2023-04-24T05:36:13;10.40;99.90
41876;DHT22;27555;50.808;4.402;2023-04-24T05:38:39;10.30;99.90
41876;DHT22;27555;50.808;4.402;2023-04-24T05:41:04;10.10;99.90
41876;DHT22;27555;50.808;4.402;2023-04-24T05:43:30;10.10;99.90
41876;DHT22;27555;50.808;4.402;2023-04-24T05:45:56;10.00;99.90
41876;DHT22;27555;50.808;4.402;2023-04-24T05:48:21;10.20;99.90
41876;DHT22;27555;50.808;4.402;2023-04-24T05:50:50;10.10;99.90
41876;DHT22;27555;50.808;4.402;2023-04-24T05:53:16;10.20;99.90
41876;DHT22;27555;50.808;4.402;2023-04-24T05:55:41;10.20;99.90
41876;DHT22;27555;50.808;4.402;2023-04-24T05:58:07;10.30;99.90
41876;DHT22;27555;50.808;4.402;2023-04-24T06:00:33;10.30;99.90
41876;DHT22;27555;50.808;4.402;2023-04-24T06:03:00;10.30;99.90
41876;DHT22;27555;50.808;4.402;2023-04-24T06:05:25;10.50;99.90
41876;DHT22;27555;50.808;4.402;2023-04-24T06:07:51;10.40;99.90
41876;DHT22;27555;50.808;4.402;2023-04-24T06:10:17;10.40;99.90
41876;DHT22;27555;50.808;4.402;2023-04-24T06:12:43;10.30;99.90
41876;DHT22;27555;50.808;4.402;2023-04-24T06:15:09;10.10;99.90
41876;DHT22;27555;50.808;4.402;2023-04-24T06:17:35;10.00;99.90
41876;DHT22;27555;50.808;4.402;2023-04-24T06:20:00;10.00;99.90
41876;DHT22;27555;50.808;4.402;2023-04-24T06:22:26;10.00;99.90
41876;DHT22;27555;50.808;4.402;2023-04-24T06:24:52;10.00;99.90
41876;DHT22;27555;50.808;4.402;2023-04-24T06:27:18;10.20;99.90
41876;DHT22;27555;50.808;4.402;2023-04-24T06:29:43;10.00;99.90
41876;DHT22;27555;50.808;4.402;2023-04-24T06:32:09;10.10;99.90
41876;DHT22;27555;50.808;4.402;2023-04-24T06:34:35;10.20;99.90
41876;DHT22;27555;50.808;4.402;2023-04-24T06:37:01;10.30;99.90
41876;DHT22;27555;50.808;4.402;2023-04-24T06:39:27;10.20;99.90
41876;DHT22;27555;50.808;4.402;2023-04-24T06:41:53;10.40;99.90
41876;DHT22;27555;50.808;4.402;2023-04-24T06:44:18;10.40;99.90
41876;DHT22;27555;50.808;4.402;2023-04-24T06:46:44;10.40;99.90
41876;DHT22;27555;50.808;4.402;2023-04-24T06:49:10;10.30;99.90
41876;DHT22;27555;50.808;4.402;2023-04-24T06:51:35;10.20;99.90
41876;DHT22;27555;50.808;4.402;2023-04-24T06:54:01;10.40;99.90
41876;DHT22;27555;50.808;4.402;2023-04-24T06:56:27;10.50;99.90
41876;DHT22;27555;50.808;4.402;2023-04-24T06:58:54;10.70;99.90
41876;DHT22;27555;50.808;4.402;2023-04-24T07:01:20;10.70;99.90
41876;DHT22;27555;50.808;4.402;2023-04-24T07:03:46;10.60;99.90
41876;DHT22;27555;50.808;4.402;2023-04-24T07:06:11;10.50;99.90
41876;DHT22;27555;50.808;4.402;2023-04-24T07:08:38;10.40;99.90
41876;DHT22;27555;50.808;4.402;2023-04-24T07:11:03;10.70;99.90
41876;DHT22;27555;50.808;4.402;2023-04-24T07:13:29;10.90;99.90
41876;DHT22;27555;50.808;4.402;2023-04-24T07:15:55;10.80;99.90
41876;DHT22;27555;50.808;4.402;2023-04-24T07:18:22;10.70;99.90
41876;DHT22;27555;50.808;4.402;2023-04-24T07:20:47;10.30;99.90
41876;DHT22;27555;50.808;4.402;2023-04-24T07:23:15;10.40;99.90
41876;DHT22;27555;50.808;4.402;2023-04-24T07:25:41;10.70;99.90
41876;DHT22;27555;50.808;4.402;2023-04-24T07:28:07;10.60;99.90
41876;DHT22;27555;50.808;4.402;2023-04-24T07:30:32;10.60;99.90
41876;DHT22;27555;50.808;4.402;2023-04-24T07:32:58;10.70;99.90
41876;DHT22;27555;50.808;4.402;2023-04-24T07:35:24;10.70;99.90
41876;DHT22;27555;50.808;4.402;2023-04-24T07:37:53;10.80;99.90
41876;DHT22;27555;50.808;4.402;2023-04-24T07:40:19;11.20;99.90
41876;DHT22;27555;50.808;4.402;2023-04-24T07:42:45;11.10;99.90
41876;DHT22;27555;50.808;4.402;2023-04-24T07:45:13;11.00;99.90
41876;DHT22;27555;50.808;4.402;2023-04-24T07:47:41;10.70;99.90
41876;DHT22;27555;50.808;4.402;2023-04-24T07:50:09;10.70;99.90
41876;DHT22;27555;50.808;4.402;2023-04-24T07:52:35;11.00;99.90
41876;DHT22;27555;50.808;4.402;2023-04-24T07:55:01;11.30;99.90
41876;DHT22;27555;50.808;4.402;2023-04-24T07:57:27;11.20;99.90
41876;DHT22;27555;50.808;4.402;2023-04-24T07:59:53;11.60;99.90
41876;DHT22;27555;50.808;4.402;2023-04-24T08:02:19;11.80;99.90
41876;DHT22;27555;50.808;4.402;2023-04-24T08:04:46;11.50;99.90
41876;DHT22;27555;50.808;4.402;2023-04-24T08:07:12;11.40;99.90
41876;DHT22;27555;50.808;4.402;2023-04-24T08:09:38;11.60;99.90
41876;DHT22;27555;50.808;4.402;2023-04-24T08:12:04;11.50;99.90
41876;DHT22;27555;50.808;4.402;2023-04-24T08:14:29;11.40;99.90
41876;DHT22;27555;50.808;4.402;2023-04-24T08:16:55;11.60;99.90
41876;DHT22;27555;50.808;4.402;2023-04-24T08:19:25;11.50;99.90
41876;DHT22;27555;50.808;4.402;2023-04-24T08:21:51;11.60;99.90
41876;DHT22;27555;50.808;4.402;2023-04-24T08:24:17;11.80;99.90
41876;DHT22;27555;50.808;4.402;2023-04-24T08:26:42;11.80;99.90
41876;DHT22;27555;50.808;4.402;2023-04-24T08:29:09;11.70;99.90
41876;DHT22;27555;50.808;4.402;2023-04-24T08:31:34;11.50;99.90
41876;DHT22;27555;50.808;4.402;2023-04-24T08:34:00;11.70;99.90
41876;DHT22;27555;50.808;4.402;2023-04-24T08:36:26;11.70;99.90
41876;DHT22;27555;50.808;4.402;2023-04-24T08:38:52;11.70;99.90
41876;DHT22;27555;50.808;4.402;2023-04-24T08:41:18;11.50;99.90
41876;DHT22;27555;50.808;4.402;2023-04-24T08:43:46;11.20;99.90
41876;DHT22;27555;50.808;4.402;2023-04-24T08:46:13;11.60;99.90
41876;DHT22;27555;50.808;4.402;2023-04-24T08:48:39;12.40;99.90
41876;DHT22;27555;50.808;4.402;2023-04-24T08:51:07;13.00;99.90
41876;DHT22;27555;50.808;4.402;2023-04-24T08:53:33;14.30;99.90
41876;DHT22;27555;50.808;4.402;2023-04-24T08:56:01;14.70;99.90
41876;DHT22;27555;50.808;4.402;2023-04-24T08:58:27;14.80;99.90
41876;DHT22;27555;50.808;4.402;2023-04-24T09:00:57;14.70;99.90
41876;DHT22;27555;50.808;4.402;2023-04-24T09:03:23;16.60;99.70
41876;DHT22;27555;50.808;4.402;2023-04-24T09:05:50;16.80;97.20
41876;DHT22;27555;50.808;4.402;2023-04-24T09:08:19;16.80;96.10
41876;DHT22;27555;50.808;4.402;2023-04-24T09:10:45;16.00;97.80
41876;DHT22;27555;50.808;4.402;2023-04-24T09:13:11;15.80;97.80
41876;DHT22;27555;50.808;4.402;2023-04-24T09:15:38;15.40;98.00
41876;DHT22;27555;50.808;4.402;2023-04-24T09:18:04;14.50;98.90
41876;DHT22;27555;50.808;4.402;2023-04-24T09:20:31;15.00;98.70
41876;DHT22;27555;50.808;4.402;2023-04-24T09:22:57;15.30;98.50
41876;DHT22;27555;50.808;4.402;2023-04-24T09:25:30;15.00;97.50
41876;DHT22;27555;50.808;4.402;2023-04-24T09:28:00;14.40;97.80
41876;DHT22;27555;50.808;4.402;2023-04-24T09:30:27;14.50;98.00
41876;DHT22;27555;50.808;4.402;2023-04-24T09:33:13;14.50;97.50
41876;DHT22;27555;50.808;4.402;2023-04-24T09:35:48;14.10;98.00
41876;DHT22;27555;50.808;4.402;2023-04-24T09:38:14;12.90;99.90
41876;DHT22;27555;50.808;4.402;2023-04-24T09:40:40;13.30;99.90
41876;DHT22;27555;50.808;4.402;2023-04-24T09:43:10;15.30;98.50
41876;DHT22;27555;50.808;4.402;2023-04-24T09:45:37;16.20;97.70
41876;DHT22;27555;50.808;4.402;2023-04-24T09:48:03;17.50;95.70
41876;DHT22;27555;50.808;4.402;2023-04-24T09:50:30;18.20;94.70
41876;DHT22;27555;50.808;4.402;2023-04-24T09:53:03;18.30;93.70
41876;DHT22;27555;50.808;4.402;2023-04-24T09:55:29;17.30;93.80
41876;DHT22;27555;50.808;4.402;2023-04-24T09:57:59;16.40;94.00
41876;DHT22;27555;50.808;4.402;2023-04-24T10:00:31;15.30;94.80
41876;DHT22;27555;50.808;4.402;2023-04-24T10:03:02;15.00;96.20
41876;DHT22;27555;50.808;4.402;2023-04-24T10:05:32;14.50;96.50
41876;DHT22;27555;50.808;4.402;2023-04-24T10:08:01;13.70;97.10
41876;DHT22;27555;50.808;4.402;2023-04-24T10:10:27;13.80;96.60
41876;DHT22;27555;50.808;4.402;2023-04-24T10:12:53;13.40;96.90
41876;DHT22;27555;50.808;4.402;2023-04-24T10:15:20;12.90;96.60
41876;DHT22;27555;50.808;4.402;2023-04-24T10:17:50;13.10;97.20
41876;DHT22;27555;50.808;4.402;2023-04-24T10:20:24;12.90;97.40
41876;DHT22;27555;50.808;4.402;2023-04-24T10:22:53;13.10;97.10
41876;DHT22;27555;50.808;4.402;2023-04-24T10:25:20;12.90;97.40
41876;DHT22;27555;50.808;4.402;2023-04-24T10:27:47;13.10;97.60
41876;DHT22;27555;50.808;4.402;2023-04-24T10:30:14;13.50;97.60
41876;DHT22;27555;50.808;4.402;2023-04-24T10:32:39;13.80;97.00
41876;DHT22;27555;50.808;4.402;2023-04-24T10:35:13;13.50;96.80
41876;DHT22;27555;50.808;4.402;2023-04-24T10:37:48;13.20;97.40
41876;DHT22;27555;50.808;4.402;2023-04-24T10:40:18;13.00;97.90
41876;DHT22;27555;50.808;4.402;2023-04-24T10:42:49;12.80;97.90
41876;DHT22;27555;50.808;4.402;2023-04-24T10:45:18;12.50;98.60
41876;DHT22;27555;50.808;4.402;2023-04-24T10:47:58;12.70;98.10
41876;DHT22;27555;50.808;4.402;2023-04-24T10:50:28;12.70;98.10
41876;DHT22;27555;50.808;4.402;2023-04-24T10:53:06;13.10;97.70
41876;DHT22;27555;50.808;4.402;2023-04-24T10:55:52;13.50;97.60
41876;DHT22;27555;50.808;4.402;2023-04-24T10:58:23;13.70;97.00
41876;DHT22;27555;50.808;4.402;2023-04-24T11:00:59;14.00;96.40
41876;DHT22;27555;50.808;4.402;2023-04-24T11:03:32;14.40;96.40
41876;DHT22;27555;50.808;4.402;2023-04-24T11:06:07;14.70;96.10
41876;DHT22;27555;50.808;4.402;2023-04-24T11:08:43;14.20;96.60
41876;DHT22;27555;50.808;4.402;2023-04-24T11:11:15;14.30;96.30
41876;DHT22;27555;50.808;4.402;2023-04-24T11:16:52;14.20;96.60
41876;DHT22;27555;50.808;4.402;2023-04-24T11:19:21;14.20;96.40
41876;DHT22;27555;50.808;4.402;2023-04-24T11:35:00;16.40;92.70
41876;DHT22;27555;50.808;4.402;2023-04-24T11:37:29;15.00;94.40
41876;DHT22;27555;50.808;4.402;2023-04-24T11:39:56;15.20;95.10
41876;DHT22;27555;50.808;4.402;2023-04-24T11:42:23;15.60;94.20
41876;DHT22;27555;50.808;4.402;2023-04-24T11:44:49;15.80;93.70
41876;DHT22;27555;50.808;4.402;2023-04-24T11:47:15;15.30;94.50
41876;DHT22;27555;50.808;4.402;2023-04-24T11:49:41;15.10;94.30
41876;DHT22;27555;50.808;4.402;2023-04-24T11:52:07;15.00;94.50
41876;DHT22;27555;50.808;4.402;2023-04-24T11:54:33;14.80;95.00
41876;DHT22;27555;50.808;4.402;2023-04-24T11:56:58;15.60;94.40
41876;DHT22;27555;50.808;4.402;2023-04-24T11:59:25;15.10;94.80
41876;DHT22;27555;50.808;4.402;2023-04-24T12:01:50;16.00;94.90
41876;DHT22;27555;50.808;4.402;2023-04-24T12:04:17;16.20;93.90
41876;DHT22;27555;50.808;4.402;2023-04-24T12:07:02;15.60;93.80
41876;DHT22;27555;50.808;4.402;2023-04-24T12:09:28;15.20;94.10
41876;DHT22;27555;50.808;4.402;2023-04-24T12:11:56;14.60;95.40
41876;DHT22;27555;50.808;4.402;2023-04-24T12:14:23;15.00;94.90
41876;DHT22;27555;50.808;4.402;2023-04-24T12:16:50;14.70;95.10
41876;DHT22;27555;50.808;4.402;2023-04-24T12:19:22;14.60;94.80
41876;DHT22;27555;50.808;4.402;2023-04-24T12:22:05;15.00;94.50
41876;DHT22;27555;50.808;4.402;2023-04-24T12:24:31;15.10;94.50
41876;DHT22;27555;50.808;4.402;2023-04-24T12:26:57;15.20;94.50
41876;DHT22;27555;50.808;4.402;2023-04-24T12:29:24;15.50;94.00
41876;DHT22;27555;50.808;4.402;2023-04-24T12:31:51;15.20;94.20
41876;DHT22;27555;50.808;4.402;2023-04-24T12:34:21;14.90;94.50
41876;DHT22;27555;50.808;4.402;2023-04-24T12:36:47;15.20;94.40
41876;DHT22;27555;50.808;4.402;2023-04-24T12:39:19;14.70;94.70
41876;DHT22;27555;50.808;4.402;2023-04-24T12:41:57;15.00;94.50
41876;DHT22;27555;50.808;4.402;2023-04-24T12:44:33;15.10;94.10
41876;DHT22;27555;50.808;4.402;2023-04-24T12:47:00;14.20;94.40
41876;DHT22;27555;50.808;4.402;2023-04-24T12:49:26;14.20;95.30
41876;DHT22;27555;50.808;4.402;2023-04-24T12:51:53;14.60;95.10
41876;DHT22;27555;50.808;4.402;2023-04-24T12:54:19;15.00;93.80
41876;DHT22;27555;50.808;4.402;2023-04-24T12:56:44;14.90;93.80
41876;DHT22;27555;50.808;4.402;2023-04-24T12:59:10;15.20;93.60
41876;DHT22;27555;50.808;4.402;2023-04-24T13:01:35;15.50;93.30
41876;DHT22;27555;50.808;4.402;2023-04-24T13:04:01;15.70;93.30
41876;DHT22;27555;50.808;4.402;2023-04-24T13:06:27;15.70;93.40
41876;DHT22;27555;50.808;4.402;2023-04-24T13:08:53;15.70;93.30
41876;DHT22;27555;50.808;4.402;2023-04-24T13:11:20;15.90;92.80
41876;DHT22;27555;50.808;4.402;2023-04-24T13:13:47;15.50;93.40
41876;DHT22;27555;50.808;4.402;2023-04-24T13:16:13;15.30;93.70
41876;DHT22;27555;50.808;4.402;2023-04-24T13:18:38;15.40;93.60
41876;DHT22;27555;50.808;4.402;2023-04-24T13:21:04;15.30;93.80
41876;DHT22;27555;50.808;4.402;2023-04-24T13:23:30;15.30;93.60
41876;DHT22;27555;50.808;4.402;2023-04-24T13:25:55;15.60;93.50
41876;DHT22;27555;50.808;4.402;2023-04-24T13:28:24;15.80;92.70
41876;DHT22;27555;50.808;4.402;2023-04-24T13:30:50;15.80;92.80
41876;DHT22;27555;50.808;4.402;2023-04-24T13:33:16;15.90;92.90
41876;DHT22;27555;50.808;4.402;2023-04-24T13:35:42;16.10;92.60
41876;DHT22;27555;50.808;4.402;2023-04-24T13:38:07;16.10;92.30
41876;DHT22;27555;50.808;4.402;2023-04-24T13:40:33;16.30;92.60
41876;DHT22;27555;50.808;4.402;2023-04-24T13:42:59;16.50;92.60
41876;DHT22;27555;50.808;4.402;2023-04-24T13:45:25;16.50;91.90
41876;DHT22;27555;50.808;4.402;2023-04-24T13:47:51;15.90;92.10
41876;DHT22;27555;50.808;4.402;2023-04-24T13:50:19;15.50;93.10
41876;DHT22;27555;50.808;4.402;2023-04-24T13:52:44;15.30;92.90
41876;DHT22;27555;50.808;4.402;2023-04-24T13:55:10;15.70;92.30
41876;DHT22;27555;50.808;4.402;2023-04-24T13:57:36;15.30;92.50
41876;DHT22;27555;50.808;4.402;2023-04-24T14:00:02;15.00;93.00
41876;DHT22;27555;50.808;4.402;2023-04-24T14:02:29;14.80;93.60
41876;DHT22;27555;50.808;4.402;2023-04-24T14:04:55;14.40;94.30
41876;DHT22;27555;50.808;4.402;2023-04-24T14:07:21;13.90;94.70
41876;DHT22;27555;50.808;4.402;2023-04-24T14:09:46;13.80;95.10
41876;DHT22;27555;50.808;4.402;2023-04-24T14:12:12;13.70;94.60
41876;DHT22;27555;50.808;4.402;2023-04-24T14:14:39;14.20;94.10
41876;DHT22;27555;50.808;4.402;2023-04-24T14:17:05;14.30;93.30
41876;DHT22;27555;50.808;4.402;2023-04-24T14:19:31;14.80;92.30
41876;DHT22;27555;50.808;4.402;2023-04-24T14:21:56;14.40;92.70
41876;DHT22;27555;50.808;4.402;2023-04-24T14:24:23;14.40;92.50
41876;DHT22;27555;50.808;4.402;2023-04-24T14:26:49;14.60;92.50
41876;DHT22;27555;50.808;4.402;2023-04-24T14:29:15;14.50;92.60
41876;DHT22;27555;50.808;4.402;2023-04-24T14:31:42;14.20;92.50
41876;DHT22;27555;50.808;4.402;2023-04-24T14:34:08;14.30;92.50
41876;DHT22;27555;50.808;4.402;2023-04-24T14:36:34;14.60;92.10
41876;DHT22;27555;50.808;4.402;2023-04-24T14:39:00;14.60;92.00
41876;DHT22;27555;50.808;4.402;2023-04-24T14:41:30;13.90;92.80
41876;DHT22;27555;50.808;4.402;2023-04-24T14:43:56;14.10;92.30
41876;DHT22;27555;50.808;4.402;2023-04-24T14:46:22;13.90;92.50
41876;DHT22;27555;50.808;4.402;2023-04-24T14:48:48;13.40;93.10
41876;DHT22;27555;50.808;4.402;2023-04-24T14:51:13;13.40;93.10
41876;DHT22;27555;50.808;4.402;2023-04-24T14:53:39;13.70;92.30
41876;DHT22;27555;50.808;4.402;2023-04-24T14:56:05;13.60;92.20
41876;DHT22;27555;50.808;4.402;2023-04-24T14:58:31;13.80;92.40
41876;DHT22;27555;50.808;4.402;2023-04-24T15:00:56;14.00;92.40
41876;DHT22;27555;50.808;4.402;2023-04-24T15:03:22;14.00;92.30
41876;DHT22;27555;50.808;4.402;2023-04-24T15:05:48;14.40;92.10
41876;DHT22;27555;50.808;4.402;2023-04-24T15:08:14;14.50;92.20
41876;DHT22;27555;50.808;4.402;2023-04-24T15:10:40;14.00;92.40
41876;DHT22;27555;50.808;4.402;2023-04-24T15:13:06;13.70;92.90
41876;DHT22;27555;50.808;4.402;2023-04-24T15:15:31;13.40;93.30
41876;DHT22;27555;50.808;4.402;2023-04-24T15:17:57;13.40;93.70
41876;DHT22;27555;50.808;4.402;2023-04-24T15:20:22;13.60;93.50
41876;DHT22;27555;50.808;4.402;2023-04-24T15:22:48;13.60;93.20
41876;DHT22;27555;50.808;4.402;2023-04-24T15:25:13;13.50;93.50
41876;DHT22;27555;50.808;4.402;2023-04-24T15:27:43;14.10;92.60
41876;DHT22;27555;50.808;4.402;2023-04-24T15:30:09;14.40;92.30
41876;DHT22;27555;50.808;4.402;2023-04-24T15:32:36;14.30;92.60
41876;DHT22;27555;50.808;4.402;2023-04-24T15:35:01;13.80;93.00
41876;DHT22;27555;50.808;4.402;2023-04-24T15:37:27;14.00;92.60
41876;DHT22;27555;50.808;4.402;2023-04-24T15:39:53;13.90;92.50
41876;DHT22;27555;50.808;4.402;2023-04-24T15:42:18;14.10;92.20
41876;DHT22;27555;50.808;4.402;2023-04-24T15:44:44;13.90;92.20